Time;durP1;ratioP1;P1;durP2;ratioP2;P2;SDS_P1;SDS_P2;PMS_P1;PMS_P2;Temp;Humidity;BMP_temperature;BMP_pressure;BME280_temperature;BME280_humidity;BME280_pressure;Samples;Min_cycle;Max_cycle;Signal;HPM_P1;HPM_P2
2022/11/24 00:01:04;;;;;;;10.50;2.47;;;;;;;10.86;59.83;96745.69;5044418;28;20442;-72
2022/11/24 00:03:29;;;;;;;11.77;2.50;;;;;;;10.76;60.05;96747.66;5030041;28;20186;-69
2022/11/24 00:05:55;;;;;;;13.20;2.37;;;;;;;10.79;59.86;96751.75;5045312;28;20460;-69
2022/11/24 00:08:20;;;;;;;8.73;2.13;;;;;;;10.81;59.67;96747.16;5039348;28;20651;-70
2022/11/24 00:10:46;;;;;;;10.23;2.73;;;;;;;10.65;60.29;96738.31;5042744;28;20202;-69
2022/11/24 00:13:11;;;;;;;15.30;2.53;;;;;;;10.46;60.77;96744.69;5018564;28;20203;-71
2022/11/24 00:15:37;;;;;;;6.20;1.93;;;;;;;10.64;61.02;96748.97;5046684;28;20658;-71
2022/11/24 00:18:02;;;;;;;8.23;2.20;;;;;;;10.60;60.78;96746.69;5044064;28;20232;-70
2022/11/24 00:20:28;;;;;;;9.57;2.70;;;;;;;10.67;60.81;96748.66;5039240;28;20207;-70
2022/11/24 00:22:54;;;;;;;7.77;2.23;;;;;;;10.66;60.79;96750.44;5044009;28;20190;-70
2022/11/24 00:25:20;;;;;;;6.40;2.20;;;;;;;10.62;60.64;96750.94;5030782;28;20179;-70
2022/11/24 00:27:45;;;;;;;10.63;2.40;;;;;;;10.58;61.09;96750.44;5035850;28;20894;-71
2022/11/24 00:30:11;;;;;;;9.67;2.73;;;;;;;10.59;60.90;96752.09;5042437;28;20203;-70
2022/11/24 00:32:36;;;;;;;7.40;2.70;;;;;;;10.62;60.34;96754.38;5044925;28;20278;-71
2022/11/24 00:35:02;;;;;;;8.90;2.17;;;;;;;10.60;60.63;96758.97;5033216;28;20537;-70
2022/11/24 00:37:28;;;;;;;7.30;2.10;;;;;;;10.65;60.20;96768.97;5033298;28;20858;-70
2022/11/24 00:39:53;;;;;;;5.00;1.80;;;;;;;10.49;60.48;96767.16;5036043;28;20242;-71
2022/11/24 00:42:18;;;;;;;7.93;2.60;;;;;;;10.48;60.92;96771.56;5041865;28;20276;-69
2022/11/24 00:44:44;;;;;;;7.03;2.40;;;;;;;10.49;60.79;96772.41;5044787;28;20201;-69
2022/11/24 00:47:09;;;;;;;10.33;2.50;;;;;;;10.48;60.71;96766.31;5041462;28;20842;-70
2022/11/24 00:49:35;;;;;;;7.80;2.33;;;;;;;10.53;60.77;96774.53;5039662;28;20180;-70
2022/11/24 00:52:00;;;;;;;7.37;2.50;;;;;;;10.46;61.07;96776.13;5043915;28;20210;-70
2022/11/24 00:54:26;;;;;;;5.30;2.10;;;;;;;10.33;60.90;96778.41;5042844;28;20191;-70
2022/11/24 00:56:51;;;;;;;3.40;2.20;;;;;;;10.29;60.97;96781.34;5044820;28;20183;-70
2022/11/24 00:59:17;;;;;;;6.90;2.13;;;;;;;10.16;61.43;96780.97;5049650;28;20682;-69
2022/11/24 01:01:42;;;;;;;9.23;2.73;;;;;;;10.12;61.39;96787.50;5034024;28;20207;-70
2022/11/24 01:04:08;;;;;;;10.53;2.67;;;;;;;10.19;61.18;96793.75;5047289;28;20354;-70
2022/11/24 01:06:35;;;;;;;9.00;2.73;;;;;;;10.29;60.82;96796.22;5034386;28;20634;-71
2022/11/24 01:09:00;;;;;;;8.10;2.33;;;;;;;10.27;60.59;96796.38;5040090;28;20180;-71
2022/11/24 01:11:28;;;;;;;11.63;2.60;;;;;;;10.22;60.79;96796.03;5017963;28;20483;-72
2022/11/24 01:13:57;;;;;;;4.90;2.13;;;;;;;10.23;61.04;96804.72;5048050;28;20606;-71
2022/11/24 01:16:32;;;;;;;8.87;2.47;;;;;;;10.24;61.02;96801.94;5043868;28;20422;-69
2022/11/24 01:18:57;;;;;;;10.10;2.67;;;;;;;10.21;60.73;96812.72;5041865;28;20821;-70
2022/11/24 01:21:23;;;;;;;10.83;2.03;;;;;;;10.21;61.13;96817.97;5039572;28;20452;-71
2022/11/24 01:23:49;;;;;;;7.23;2.00;;;;;;;10.14;61.52;96816.97;5037290;28;20255;-70
2022/11/24 01:26:17;;;;;;;10.23;2.50;;;;;;;10.17;61.59;96816.66;5049153;28;20713;-70
2022/11/24 01:28:43;;;;;;;13.80;2.70;;;;;;;10.06;61.38;96816.97;5044942;28;20176;-70
2022/11/24 01:31:08;;;;;;;6.13;2.27;;;;;;;10.11;61.28;96830.38;5021008;28;20449;-70
2022/11/24 01:33:35;;;;;;;4.23;2.03;;;;;;;10.17;60.83;96832.38;5034995;28;20624;-71
2022/11/24 01:36:00;;;;;;;16.80;2.77;;;;;;;10.16;59.77;96833.34;5023289;28;20233;-70
2022/11/24 01:38:26;;;;;;;6.27;2.40;;;;;;;10.14;59.53;96833.50;5043558;28;20421;-70
2022/11/24 01:41:03;;;;;;;6.63;2.27;;;;;;;10.21;59.47;96833.69;5032922;28;20751;-71
2022/11/24 01:43:29;;;;;;;10.43;2.20;;;;;;;10.19;60.28;96832.22;5037144;28;20606;-70
2022/11/24 01:45:54;;;;;;;7.93;1.93;;;;;;;10.18;61.17;96835.81;5043353;28;20454;-71
2022/11/24 01:48:24;;;;;;;5.17;2.00;;;;;;;10.21;61.62;96838.13;5041405;28;20183;-71
2022/11/24 01:50:54;;;;;;;8.63;2.23;;;;;;;10.27;62.22;96842.72;5023537;28;20904;-70
2022/11/24 01:53:21;;;;;;;10.23;2.40;;;;;;;10.30;62.19;96843.22;5027688;28;20426;-70
2022/11/24 01:55:47;;;;;;;8.93;2.07;;;;;;;10.34;62.52;96846.34;5047364;28;20414;-71
2022/11/24 01:58:15;;;;;;;6.07;1.53;;;;;;;10.38;62.47;96852.09;5030206;28;20792;-70
2022/11/24 02:00:43;;;;;;;7.40;1.87;;;;;;;10.43;62.11;96848.03;5040668;28;20286;-71
2022/11/24 02:03:11;;;;;;;12.70;2.67;;;;;;;10.46;62.45;96852.13;5020513;28;20414;-70
2022/11/24 02:05:48;;;;;;;4.83;2.13;;;;;;;10.48;62.44;96851.97;5029640;28;20509;-71
2022/11/24 02:08:24;;;;;;;10.73;2.33;;;;;;;10.58;62.51;96850.84;5042476;28;20961;-70
2022/11/24 02:10:49;;;;;;;4.30;1.60;;;;;;;10.65;62.43;96852.81;5045478;28;20463;-69
2022/11/24 02:13:15;;;;;;;11.43;1.77;;;;;;;10.64;61.90;96859.88;5030199;28;20538;-69
2022/11/24 02:15:41;;;;;;;5.10;2.03;;;;;;;10.72;61.87;96852.00;5037099;28;20186;-69
2022/11/24 02:18:06;;;;;;;5.17;1.73;;;;;;;10.77;61.69;96853.34;5051266;28;20211;-69
2022/11/24 02:20:33;;;;;;;4.03;1.30;;;;;;;10.79;61.31;96864.47;5031183;28;20230;-68
2022/11/24 02:23:24;;;;;;;11.50;2.33;;;;;;;10.67;61.64;96869.22;5048823;28;20198;-70
2022/11/24 02:25:59;;;;;;;12.20;2.50;;;;;;;10.82;61.31;96864.16;5043217;28;20449;-70
2022/11/24 02:28:26;;;;;;;5.27;1.43;;;;;;;10.81;61.32;96865.97;5038531;28;20436;-71
2022/11/24 02:30:52;;;;;;;6.30;1.87;;;;;;;10.76;61.31;96863.00;5040179;28;20445;-69
2022/11/24 02:33:19;;;;;;;7.57;1.60;;;;;;;10.81;61.33;96860.72;5039796;28;20441;-69
2022/11/24 02:35:44;;;;;;;6.70;2.17;;;;;;;10.77;61.05;96858.59;5039068;28;20790;-71
2022/11/24 02:38:13;;;;;;;4.43;1.60;;;;;;;10.73;61.23;96858.06;5022981;28;20488;-70
2022/11/24 02:40:42;;;;;;;3.83;1.60;;;;;;;10.78;60.63;96861.03;5036013;28;20629;-69
2022/11/24 02:43:12;;;;;;;6.23;2.13;;;;;;;10.54;61.32;96854.78;5047767;28;20476;-70
2022/11/24 02:45:37;;;;;;;6.60;1.73;;;;;;;10.63;61.08;96853.00;5042098;28;20476;-70
2022/11/24 02:48:03;;;;;;;6.13;1.57;;;;;;;10.59;61.21;96856.91;5045238;28;20933;-71
2022/11/24 02:50:28;;;;;;;7.50;1.67;;;;;;;10.58;61.38;96853.47;5040666;28;20234;-72
2022/11/24 02:52:54;;;;;;;8.27;2.17;;;;;;;10.57;60.92;96854.47;5044045;28;20184;-71
2022/11/24 02:55:19;;;;;;;7.33;1.77;;;;;;;10.52;61.37;96861.97;5035638;28;20237;-71
2022/11/24 02:57:45;;;;;;;5.90;1.90;;;;;;;10.49;61.82;96859.66;5048493;28;20179;-72
2022/11/24 03:00:11;;;;;;;6.10;1.87;;;;;;;10.52;61.72;96859.34;5037035;28;20203;-71
2022/11/24 03:02:36;;;;;;;3.93;1.50;;;;;;;10.60;61.48;96872.47;5042732;28;20191;-70
2022/11/24 03:05:02;;;;;;;4.63;1.63;;;;;;;10.53;61.50;96874.09;5043798;28;20179;-69
2022/11/24 03:07:28;;;;;;;3.90;1.47;;;;;;;10.51;61.56;96878.66;5038725;28;20215;-70
2022/11/24 03:09:53;;;;;;;3.50;1.40;;;;;;;10.52;61.98;96882.94;5042773;28;20176;-71
2022/11/24 03:12:18;;;;;;;6.33;1.43;;;;;;;10.54;61.54;96880.13;5042566;28;20172;-71
2022/11/24 03:14:44;;;;;;;4.57;2.17;;;;;;;10.47;61.59;96879.97;5048183;28;20262;-71
2022/11/24 03:17:09;;;;;;;6.40;1.63;;;;;;;10.47;61.70;96872.09;5023670;28;20247;-70
2022/11/24 03:19:35;;;;;;;6.33;1.83;;;;;;;10.47;61.86;96874.72;5041936;28;20205;-70
2022/11/24 03:22:00;;;;;;;4.03;1.93;;;;;;;10.43;61.63;96881.28;5043864;28;20203;-70
2022/11/24 03:24:26;;;;;;;3.90;1.50;;;;;;;10.45;61.76;96893.22;5042235;28;20265;-70
2022/11/24 03:26:51;;;;;;;5.60;1.77;;;;;;;10.42;61.42;96882.25;5045493;28;20206;-69
2022/11/24 03:29:16;;;;;;;9.43;1.60;;;;;;;10.43;61.73;96881.28;5041710;28;20259;-70
2022/11/24 03:31:42;;;;;;;3.97;1.63;;;;;;;10.37;61.80;96890.56;5049774;28;20286;-69
2022/11/24 03:34:08;;;;;;;3.90;1.77;;;;;;;10.40;61.80;96886.81;5032468;28;20199;-70
2022/11/24 03:36:33;;;;;;;7.53;1.57;;;;;;;10.38;61.48;96887.00;5025577;28;20548;-69
2022/11/24 03:38:58;;;;;;;6.30;1.97;;;;;;;10.35;61.18;96891.69;5042067;28;20235;-70
2022/11/24 03:41:24;;;;;;;5.43;1.63;;;;;;;10.38;61.25;96897.47;5035593;28;20633;-70
2022/11/24 03:43:50;;;;;;;5.33;1.30;;;;;;;10.32;61.76;96900.69;5046840;28;20269;-70
2022/11/24 03:46:15;;;;;;;6.10;1.40;;;;;;;10.43;61.34;96907.47;5024066;28;20222;-68
2022/11/24 03:48:41;;;;;;;5.60;1.90;;;;;;;10.43;61.12;96907.47;5048915;28;20549;-69
2022/11/24 03:51:06;;;;;;;6.70;1.80;;;;;;;10.35;61.59;96910.00;5033472;28;20222;-69
2022/11/24 03:53:32;;;;;;;5.87;2.13;;;;;;;10.40;61.58;96913.03;5045160;28;20186;-71
2022/11/24 03:55:58;;;;;;;3.57;1.50;;;;;;;10.45;61.24;96906.31;5040788;28;20718;-69
2022/11/24 03:58:24;;;;;;;5.03;1.37;;;;;;;10.39;61.33;96908.75;5038977;28;20516;-70
2022/11/24 04:00:51;;;;;;;7.00;1.73;;;;;;;10.39;61.38;96909.59;5042603;28;20213;-69
2022/11/24 04:03:16;;;;;;;6.97;1.60;;;;;;;10.39;61.38;96908.75;5044620;28;20768;-69
2022/11/24 04:05:42;;;;;;;4.60;1.57;;;;;;;10.39;61.22;96909.59;5042274;28;20523;-70
2022/11/24 04:08:07;;;;;;;2.47;1.23;;;;;;;10.40;61.83;96915.66;5044403;28;20265;-69
2022/11/24 04:10:35;;;;;;;4.50;1.60;;;;;;;10.38;61.06;96912.34;5035838;28;20761;-71
2022/11/24 04:13:09;;;;;;;5.90;1.60;;;;;;;10.34;61.23;96917.06;5047216;28;20678;-70
2022/11/24 04:15:37;;;;;;;4.53;1.43;;;;;;;10.31;61.05;96927.84;5041451;28;20430;-69
2022/11/24 04:18:02;;;;;;;10.33;1.30;;;;;;;10.31;61.51;96920.00;5043938;28;20462;-71
2022/11/24 04:20:28;;;;;;;6.80;1.70;;;;;;;10.34;61.33;96926.72;5043815;28;20478;-70
2022/11/24 04:22:53;;;;;;;5.20;1.70;;;;;;;10.20;61.44;96923.72;5044194;28;20274;-70
2022/11/24 04:25:18;;;;;;;5.13;1.70;;;;;;;10.28;61.23;96928.16;5045886;28;20263;-70
2022/11/24 04:27:44;;;;;;;6.53;1.93;;;;;;;10.11;61.83;96935.97;5039558;28;20212;-71
2022/11/24 04:30:10;;;;;;;8.20;1.67;;;;;;;10.14;61.94;96935.63;5038433;28;20207;-70
2022/11/24 04:32:35;;;;;;;7.10;2.00;;;;;;;10.23;61.80;96936.47;5039058;28;20246;-71
2022/11/24 04:35:02;;;;;;;5.00;1.70;;;;;;;10.27;61.48;96937.03;5052495;28;20252;-70
2022/11/24 04:37:27;;;;;;;7.37;1.83;;;;;;;10.28;61.38;96939.47;5046800;28;20211;-71
2022/11/24 04:39:54;;;;;;;8.63;2.40;;;;;;;10.27;61.67;96942.25;5032834;28;20475;-69
2022/11/24 04:42:19;;;;;;;5.00;1.90;;;;;;;10.16;61.95;96940.72;5043994;28;20187;-71
2022/11/24 04:44:45;;;;;;;8.53;1.90;;;;;;;10.05;62.49;96939.19;5042046;28;20422;-70
2022/11/24 04:47:16;;;;;;;11.43;2.40;;;;;;;10.13;62.36;96943.66;5047009;28;21052;-70
2022/11/24 04:49:41;;;;;;;12.00;2.53;;;;;;;10.22;62.18;96955.00;5021962;28;20532;-69
2022/11/24 04:52:07;;;;;;;8.80;2.10;;;;;;;10.19;62.26;96953.50;5023057;28;20469;-71
2022/11/24 04:54:32;;;;;;;8.47;2.90;;;;;;;10.20;62.05;96960.41;5004634;28;20220;-72
2022/11/24 04:56:58;;;;;;;7.80;1.80;;;;;;;10.15;61.99;96954.78;5033491;28;20180;-71
2022/11/24 04:59:23;;;;;;;8.10;2.10;;;;;;;10.12;61.90;96955.94;5032345;28;21431;-71
2022/11/24 05:01:49;;;;;;;8.43;1.73;;;;;;;10.14;62.18;96950.53;5031676;28;20230;-71
2022/11/24 05:04:14;;;;;;;7.60;1.70;;;;;;;10.14;61.86;96945.28;5033066;28;20525;-71
2022/11/24 05:06:40;;;;;;;5.53;1.80;;;;;;;10.15;61.61;96949.56;5037623;28;20206;-70
2022/11/24 05:09:06;;;;;;;9.27;2.13;;;;;;;9.98;62.56;96954.69;5023312;28;20698;-68
2022/11/24 05:11:32;;;;;;;7.63;2.10;;;;;;;10.05;62.41;96960.13;5032464;28;20636;-70
2022/11/24 05:13:58;;;;;;;7.97;2.10;;;;;;;9.99;62.35;96953.72;5032563;28;20433;-70
2022/11/24 05:16:23;;;;;;;9.00;2.60;;;;;;;10.07;62.22;96946.91;5029116;28;20427;-70
2022/11/24 05:18:49;;;;;;;7.30;1.70;;;;;;;10.04;62.45;96948.00;5031417;28;20559;-70
2022/11/24 05:21:14;;;;;;;6.00;1.83;;;;;;;10.01;61.96;96947.50;4999760;28;20211;-70
2022/11/24 05:23:40;;;;;;;6.13;2.13;;;;;;;9.92;62.30;96955.31;5015531;28;20192;-70
2022/11/24 05:26:05;;;;;;;12.23;2.30;;;;;;;9.90;62.31;96952.03;5029265;28;20212;-69
2022/11/24 05:28:31;;;;;;;8.13;1.73;;;;;;;10.03;62.21;96962.06;5032772;28;20188;-70
2022/11/24 05:31:00;;;;;;;10.03;2.13;;;;;;;10.10;61.95;96967.50;5032311;28;20743;-69
2022/11/24 05:33:27;;;;;;;7.87;2.30;;;;;;;10.04;61.68;96968.16;5037216;28;20203;-70
2022/11/24 05:35:53;;;;;;;11.40;2.10;;;;;;;10.03;61.91;96975.16;5032039;28;20423;-71
2022/11/24 05:38:19;;;;;;;7.97;2.30;;;;;;;9.98;62.16;96970.41;5036987;28;20422;-71
2022/11/24 05:40:45;;;;;;;9.80;2.17;;;;;;;10.04;62.24;96978.63;5034618;28;20779;-69
2022/11/24 05:43:11;;;;;;;8.17;2.10;;;;;;;10.01;62.35;96971.91;5033037;28;20427;-70
2022/11/24 05:45:37;;;;;;;15.93;3.00;;;;;;;10.08;62.10;96974.72;5031945;28;20196;-70
2022/11/24 05:48:05;;;;;;;12.30;2.27;;;;;;;10.02;61.49;96976.13;5030867;28;20429;-71
2022/11/24 05:50:30;;;;;;;8.00;1.90;;;;;;;10.08;61.41;96974.72;5025375;28;20211;-71
2022/11/24 05:52:56;;;;;;;9.87;2.60;;;;;;;10.06;61.96;96972.25;5030537;28;20811;-70
2022/11/24 05:55:21;;;;;;;12.23;2.70;;;;;;;10.07;61.36;96968.66;5031330;28;20291;-69
2022/11/24 05:57:46;;;;;;;8.27;2.80;;;;;;;10.13;61.59;96964.59;5030634;28;20186;-71
2022/11/24 06:00:13;;;;;;;12.43;2.50;;;;;;;10.17;61.91;96971.16;5028144;28;20191;-70
2022/11/24 06:02:39;;;;;;;5.17;2.67;;;;;;;10.12;62.09;96971.63;5030609;28;20188;-71
2022/11/24 06:05:04;;;;;;;4.23;2.30;;;;;;;10.17;61.52;96962.47;5029738;28;20419;-70
2022/11/24 06:07:30;;;;;;;8.33;2.50;;;;;;;10.20;61.71;96960.41;5031581;28;20702;-71
2022/11/24 06:09:55;;;;;;;9.00;3.07;;;;;;;10.23;61.82;96962.69;5028244;28;20262;-71
2022/11/24 06:12:21;;;;;;;14.70;2.40;;;;;;;10.26;61.67;96959.75;5031727;28;20183;-72
2022/11/24 06:14:46;;;;;;;15.37;2.87;;;;;;;10.21;62.11;96964.63;5031297;28;20726;-70
2022/11/24 06:17:12;;;;;;;7.37;1.50;;;;;;;10.17;62.08;96963.31;5030522;28;20175;-70
2022/11/24 06:19:37;;;;;;;13.10;2.70;;;;;;;10.16;62.33;96972.16;5024314;28;20205;-70
2022/11/24 06:22:03;;;;;;;12.03;1.83;;;;;;;10.17;62.41;96970.34;5032009;28;20207;-71
2022/11/24 06:24:28;;;;;;;7.87;2.37;;;;;;;10.15;62.70;96965.25;5028242;28;20659;-70
2022/11/24 06:26:54;;;;;;;8.73;2.30;;;;;;;10.23;62.26;96974.97;5029715;28;20208;-70
2022/11/24 06:29:19;;;;;;;10.07;2.80;;;;;;;10.28;62.39;96976.13;5022486;28;20190;-70
2022/11/24 06:31:45;;;;;;;11.87;2.40;;;;;;;10.30;62.31;96992.53;5031155;28;20269;-70
2022/11/24 06:34:11;;;;;;;7.63;2.37;;;;;;;10.18;62.07;96985.06;5035046;28;20203;-71
2022/11/24 06:36:38;;;;;;;10.67;2.97;;;;;;;10.26;62.28;96988.56;5013133;28;20195;-70
2022/11/24 06:39:04;;;;;;;6.13;2.43;;;;;;;10.26;62.11;96988.56;5023065;28;21017;-70
2022/11/24 06:41:29;;;;;;;18.70;3.23;;;;;;;10.37;61.89;96990.09;5026171;28;20450;-70
2022/11/24 06:43:55;;;;;;;11.50;2.57;;;;;;;10.37;61.81;96997.13;5027205;28;20808;-71
2022/11/24 06:46:21;;;;;;;8.40;2.60;;;;;;;10.32;61.52;96996.78;5032714;28;20226;-69
2022/11/24 06:48:46;;;;;;;8.20;2.73;;;;;;;10.38;62.02;97007.50;5037143;28;20190;-70
2022/11/24 06:51:12;;;;;;;11.97;3.00;;;;;;;10.38;62.01;97012.75;5033877;28;20450;-71
2022/11/24 06:53:39;;;;;;;8.40;2.97;;;;;;;10.40;61.93;97009.94;5022236;28;20257;-71
2022/11/24 06:56:06;;;;;;;14.70;2.83;;;;;;;10.43;61.92;97018.31;5028874;28;20773;-69
2022/11/24 06:58:32;;;;;;;12.60;2.47;;;;;;;10.45;61.72;97013.75;5029912;28;20427;-70
2022/11/24 07:00:57;;;;;;;12.03;3.10;;;;;;;10.50;61.67;97025.56;5031010;28;20453;-70
2022/11/24 07:03:23;;;;;;;10.13;2.57;;;;;;;10.54;61.56;97027.72;5012659;28;20545;-70
2022/11/24 07:05:48;;;;;;;7.97;2.47;;;;;;;10.62;61.60;97033.97;5028626;28;20270;-72
2022/11/24 07:08:14;;;;;;;9.83;2.87;;;;;;;10.64;61.77;97042.50;5031251;28;20183;-70
2022/11/24 07:10:39;;;;;;;4.47;2.30;;;;;;;10.66;61.54;97043.97;5040410;28;20230;-71
2022/11/24 07:13:08;;;;;;;8.30;2.20;;;;;;;10.70;61.60;97050.56;5032924;28;20196;-70
2022/11/24 07:15:34;;;;;;;10.80;2.80;;;;;;;10.74;61.66;97051.06;5031042;28;20194;-71
2022/11/24 07:17:59;;;;;;;9.27;2.90;;;;;;;10.72;61.71;97058.25;5030318;28;20513;-71
2022/11/24 07:20:25;;;;;;;20.93;4.27;;;;;;;10.73;62.04;97065.97;5029426;28;20611;-71
2022/11/24 07:22:55;;;;;;;16.30;3.00;;;;;;;10.78;61.53;97065.50;5030765;28;20180;-71
2022/11/24 07:25:20;;;;;;;11.13;3.00;;;;;;;10.85;61.33;97076.19;5030840;28;20184;-69
2022/11/24 07:27:46;;;;;;;10.80;2.50;;;;;;;10.83;61.76;97078.97;5031062;28;20515;-70
2022/11/24 07:30:11;;;;;;;10.60;2.83;;;;;;;10.89;62.20;97085.38;5025149;28;20215;-73
2022/11/24 07:32:37;;;;;;;11.37;2.80;;;;;;;10.88;61.70;97097.66;5007011;28;20678;-70
2022/11/24 07:35:02;;;;;;;12.53;4.40;;;;;;;10.88;62.48;97108.13;5026839;28;20195;-71
2022/11/24 07:37:28;;;;;;;13.43;3.07;;;;;;;10.82;62.80;97108.78;5027528;28;20188;-72
2022/11/24 07:39:53;;;;;;;10.23;2.57;;;;;;;10.75;63.01;97113.81;5026364;28;20180;-72
2022/11/24 07:42:19;;;;;;;13.17;2.47;;;;;;;10.76;63.65;97109.38;5030071;28;20228;-72
2022/11/24 07:44:44;;;;;;;12.70;2.70;;;;;;;10.68;64.05;97125.09;5012130;28;20267;-73
2022/11/24 07:47:09;;;;;;;15.03;2.33;;;;;;;10.75;63.78;97134.78;5022845;28;20265;-72
2022/11/24 07:49:35;;;;;;;12.67;2.80;;;;;;;10.75;64.25;97133.97;5029107;28;20548;-72
2022/11/24 07:52:00;;;;;;;7.30;2.83;;;;;;;10.74;64.52;97140.19;5009249;28;20581;-72
2022/11/24 07:54:26;;;;;;;11.47;2.60;;;;;;;10.83;63.85;97133.19;5023127;28;20194;-71
2022/11/24 07:56:51;;;;;;;7.80;2.13;;;;;;;10.64;64.87;97137.69;5026845;28;20188;-71
2022/11/24 07:59:17;;;;;;;5.73;2.20;;;;;;;10.77;64.95;97137.25;5026527;28;20195;-72
2022/11/24 08:01:42;;;;;;;9.73;2.07;;;;;;;10.82;64.48;97142.03;5030528;28;20679;-71
2022/11/24 08:04:08;;;;;;;7.10;1.90;;;;;;;10.67;64.39;97141.78;5030604;28;20187;-70
2022/11/24 08:06:33;;;;;;;7.20;2.40;;;;;;;10.77;64.47;97137.25;5032659;28;20210;-72
2022/11/24 08:08:59;;;;;;;6.90;2.30;;;;;;;10.77;64.75;97124.16;5033722;28;20262;-71
2022/11/24 08:11:25;;;;;;;9.77;2.30;;;;;;;10.78;64.76;97117.94;5032766;28;20242;-70
2022/11/24 08:13:50;;;;;;;7.23;2.00;;;;;;;10.79;64.63;97114.34;5034873;28;20180;-71
2022/11/24 08:16:17;;;;;;;4.00;1.60;;;;;;;10.56;63.69;97116.66;5032782;28;20426;-72
2022/11/24 08:18:43;;;;;;;8.20;1.90;;;;;;;10.68;63.43;97122.47;5033351;28;20183;-70
2022/11/24 08:21:12;;;;;;;7.17;1.80;;;;;;;10.80;63.17;97129.09;5034866;28;20465;-71
2022/11/24 08:23:37;;;;;;;9.50;1.63;;;;;;;10.81;62.79;97132.50;5036044;28;20196;-71
2022/11/24 08:26:09;;;;;;;5.60;1.53;;;;;;;10.71;62.90;97149.19;5035658;28;20454;-71
2022/11/24 08:28:35;;;;;;;8.43;1.80;;;;;;;10.71;62.61;97140.50;5042292;28;20270;-72
2022/11/24 08:31:03;;;;;;;8.93;1.70;;;;;;;10.74;62.90;97148.03;5021071;28;20458;-70
2022/11/24 08:33:29;;;;;;;4.23;1.30;;;;;;;10.74;62.82;97150.66;5039167;28;20458;-71
2022/11/24 08:35:55;;;;;;;3.17;1.30;;;;;;;10.87;62.61;97161.56;5023894;28;20430;-72
2022/11/24 08:38:20;;;;;;;3.50;1.20;;;;;;;10.79;61.92;97164.13;5037236;28;21185;-71
2022/11/24 08:40:46;;;;;;;4.07;1.20;;;;;;;10.50;61.92;97167.88;5027771;28;20207;-73
2022/11/24 08:43:11;;;;;;;2.23;1.30;;;;;;;10.72;61.39;97170.97;5020682;28;20191;-72
2022/11/24 08:45:37;;;;;;;10.70;1.60;;;;;;;10.59;61.68;97177.44;5018350;28;20394;-73
2022/11/24 08:48:02;;;;;;;3.50;1.03;;;;;;;10.69;61.47;97166.84;5015927;28;20266;-73
2022/11/24 08:50:28;;;;;;;3.73;1.10;;;;;;;10.77;61.78;97175.75;5013589;28;20242;-74
2022/11/24 08:52:53;;;;;;;5.33;1.23;;;;;;;10.80;62.01;97173.66;5025169;28;20194;-72
2022/11/24 08:55:19;;;;;;;2.60;1.20;;;;;;;10.81;62.11;97180.53;5025346;28;20192;-73
2022/11/24 08:57:45;;;;;;;4.67;1.20;;;;;;;10.85;61.84;97179.22;5016184;28;20563;-72
2022/11/24 09:00:12;;;;;;;4.53;1.23;;;;;;;10.82;61.78;97184.81;5020054;28;20426;-72
2022/11/24 09:02:37;;;;;;;4.67;1.30;;;;;;;10.89;61.81;97183.19;5018041;28;20188;-74
2022/11/24 09:05:03;;;;;;;3.37;1.20;;;;;;;10.88;62.03;97178.94;5018731;28;20446;-73
2022/11/24 09:07:29;;;;;;;2.27;1.10;;;;;;;10.99;62.33;97198.00;5016055;28;20212;-73
2022/11/24 09:09:54;;;;;;;4.20;1.30;;;;;;;11.02;62.44;97181.97;5017831;28;20656;-71
2022/11/24 09:12:19;;;;;;;4.80;1.50;;;;;;;11.07;62.42;97188.38;5017079;28;20197;-73
2022/11/24 09:14:45;;;;;;;2.70;1.33;;;;;;;11.15;62.07;97184.97;5018792;28;20270;-72
2022/11/24 09:17:10;;;;;;;2.77;0.83;;;;;;;11.07;61.67;97179.72;5020685;28;20314;-72
2022/11/24 09:19:36;;;;;;;1.70;1.00;;;;;;;11.13;61.77;97197.44;5022157;28;20726;-73
2022/11/24 09:22:01;;;;;;;1.83;1.00;;;;;;;11.09;61.56;97196.09;5020702;28;20200;-73
2022/11/24 09:24:27;;;;;;;1.63;0.80;;;;;;;11.13;61.04;97202.69;5023406;28;20253;-72
2022/11/24 09:26:54;;;;;;;1.80;1.10;;;;;;;11.10;60.41;97200.34;5026373;28;20593;-72
2022/11/24 09:29:19;;;;;;;4.83;1.00;;;;;;;11.12;60.51;97208.91;5023916;28;20219;-72
2022/11/24 09:31:45;;;;;;;2.80;1.27;;;;;;;11.06;60.90;97222.66;5039601;28;20814;-72
2022/11/24 09:34:13;;;;;;;4.73;1.10;;;;;;;11.12;60.67;97223.81;5037476;28;20283;-72
2022/11/24 09:36:38;;;;;;;14.17;1.40;;;;;;;11.10;60.74;97229.22;5021065;28;20196;-73
2022/11/24 09:39:04;;;;;;;8.03;1.37;;;;;;;11.17;60.44;97235.50;5020196;28;20440;-72
2022/11/24 09:42:01;;;;;;;5.53;1.17;;;;;;;11.03;60.48;97230.81;5021877;28;20291;-73
2022/11/24 09:44:55;;;;;;;4.00;0.90;;;;;;;11.16;60.76;97233.84;5013661;28;20254;-73
2022/11/24 09:47:49;;;;;;;3.13;1.00;;;;;;;11.20;60.54;97235.19;5016160;28;21236;-74
2022/11/24 09:50:18;;;;;;;5.93;1.57;;;;;;;11.24;60.58;97237.47;5012836;28;20518;-72
2022/11/24 09:53:00;;;;;;;1.47;1.20;;;;;;;11.30;60.71;97237.69;5016631;28;20473;-72
2022/11/24 09:55:46;;;;;;;1.93;1.20;;;;;;;11.28;60.89;97244.88;5030998;28;20428;-73
2022/11/24 09:58:38;;;;;;;6.53;1.00;;;;;;;11.27;61.49;97248.50;5025491;28;20427;-72
2022/11/24 10:01:07;;;;;;;2.63;0.90;;;;;;;11.28;61.13;97244.06;5031100;28;20451;-74
2022/11/24 10:03:44;;;;;;;8.87;1.00;;;;;;;11.12;61.37;97239.56;4997041;28;20423;-73
2022/11/24 10:06:24;;;;;;;3.50;1.23;;;;;;;11.21;61.77;97246.50;5018614;28;20464;-73
2022/11/24 10:09:02;;;;;;;1.90;1.10;;;;;;;11.36;61.12;97242.31;5020680;28;20187;-73
2022/11/24 10:11:35;;;;;;;3.37;0.90;;;;;;;11.78;60.69;97235.44;5034927;28;20454;-74
2022/11/24 10:14:32;;;;;;;2.13;1.00;;;;;;;12.42;60.00;97237.56;5041375;28;20498;-73
2022/11/24 10:17:27;;;;;;;1.50;1.00;;;;;;;13.34;58.10;97231.22;5025632;28;20418;-72
2022/11/24 10:20:00;;;;;;;1.67;0.70;;;;;;;14.00;54.55;97235.41;5029866;28;20207;-75
2022/11/24 10:22:58;;;;;;;1.30;0.70;;;;;;;14.83;53.28;97240.94;5027762;28;20450;-74
2022/11/24 10:25:34;;;;;;;4.97;1.00;;;;;;;15.60;52.64;97248.75;5025935;28;20428;-73
2022/11/24 10:28:02;;;;;;;1.90;0.77;;;;;;;16.16;50.36;97240.31;5020953;28;20461;-74
2022/11/24 10:30:28;;;;;;;1.00;0.67;;;;;;;16.21;47.46;97243.19;5024470;28;20438;-74
2022/11/24 10:33:05;;;;;;;2.80;0.83;;;;;;;15.76;47.74;97251.19;4998399;28;20794;-72
2022/11/24 10:35:47;;;;;;;2.53;0.70;;;;;;;15.48;48.00;97246.59;5025871;28;20218;-73
2022/11/24 10:38:34;;;;;;;1.63;0.80;;;;;;;15.34;48.83;97239.47;4993886;28;20962;-73
2022/11/24 10:41:10;;;;;;;3.73;0.83;;;;;;;15.05;49.33;97249.00;5030705;28;20538;-72
2022/11/24 10:43:36;;;;;;;1.52;1.02;;;;;;;14.68;50.46;97248.81;5027209;28;20421;-72
2022/11/24 10:46:17;;;;;;;2.97;0.60;;;;;;;14.32;50.92;97243.28;5021480;28;20824;-72
2022/11/24 10:48:52;;;;;;;2.80;1.00;;;;;;;14.14;51.49;97247.00;5015961;28;20630;-74
2022/11/24 10:51:27;;;;;;;1.67;0.80;;;;;;;14.27;52.37;97247.25;5024028;28;20450;-72
2022/11/24 10:53:58;;;;;;;0.97;0.80;;;;;;;14.96;51.73;97244.81;5022348;28;20418;-74
2022/11/24 10:56:24;;;;;;;1.80;1.40;;;;;;;15.12;51.34;97244.63;5028701;28;20437;-74
2022/11/24 10:58:49;;;;;;;1.60;0.90;;;;;;;15.09;50.62;97247.66;5009505;28;20512;-75
2022/11/24 11:01:23;;;;;;;5.70;0.70;;;;;;;15.00;50.69;97240.78;5030973;28;20290;-73
2022/11/24 11:03:52;;;;;;;2.10;0.90;;;;;;;14.90;50.98;97249.78;5030294;28;20191;-73
2022/11/24 11:06:23;;;;;;;1.60;1.00;;;;;;;14.69;51.83;97241.72;5037710;28;20468;-75
2022/11/24 11:08:49;;;;;;;1.23;1.03;;;;;;;14.57;52.60;97246.56;5025764;28;20431;-73
2022/11/24 11:11:28;;;;;;;1.70;0.90;;;;;;;14.39;51.65;97247.69;5029287;28;21028;-73
2022/11/24 11:14:00;;;;;;;1.93;0.90;;;;;;;14.74;52.46;97242.03;5026161;28;20462;-74
2022/11/24 11:16:51;;;;;;;1.17;0.83;;;;;;;15.37;51.34;97236.47;5028937;28;20789;-73
2022/11/24 11:19:31;;;;;;;4.50;0.80;;;;;;;15.68;50.19;97240.72;5020834;28;20926;-73
2022/11/24 11:22:22;;;;;;;1.30;0.83;;;;;;;16.25;49.54;97243.66;5028743;28;20536;-74
2022/11/24 11:25:06;;;;;;;1.60;0.83;;;;;;;16.76;47.98;97232.09;5018289;28;20422;-73
2022/11/24 11:27:32;;;;;;;1.20;0.70;;;;;;;16.55;46.14;97236.41;5020979;28;20462;-73
2022/11/24 11:30:26;;;;;;;3.60;1.07;;;;;;;16.61;46.14;97237.50;5021623;28;20833;-73
2022/11/24 11:32:57;;;;;;;1.43;0.90;;;;;;;16.85;46.33;97230.94;5022848;28;20251;-73
2022/11/24 11:35:25;;;;;;;2.07;1.07;;;;;;;16.92;45.61;97227.56;5017918;28;20986;-74